sensor_id;sensor_type;location;lat;lon;timestamp;temperature;humidity
55369;DHT22;41247;49.736;8.752;2022-12-18T00:02:20;-7.80;99.90
55369;DHT22;41247;49.736;8.752;2022-12-18T00:06:01;-7.80;99.90
55369;DHT22;41247;49.736;8.752;2022-12-18T00:09:42;-7.80;99.90
55369;DHT22;41247;49.736;8.752;2022-12-18T00:13:23;-7.70;99.90
55369;DHT22;41247;49.736;8.752;2022-12-18T00:17:03;-7.70;99.90
55369;DHT22;41247;49.736;8.752;2022-12-18T00:20:44;-7.70;99.90
55369;DHT22;41247;49.736;8.752;2022-12-18T00:24:24;-7.70;99.90
55369;DHT22;41247;49.736;8.752;2022-12-18T00:28:05;-7.70;99.90
55369;DHT22;41247;49.736;8.752;2022-12-18T00:31:46;-7.80;99.90
55369;DHT22;41247;49.736;8.752;2022-12-18T00:35:26;-7.70;99.90
55369;DHT22;41247;49.736;8.752;2022-12-18T00:39:07;-7.60;99.90
55369;DHT22;41247;49.736;8.752;2022-12-18T00:42:49;-7.60;99.90
55369;DHT22;41247;49.736;8.752;2022-12-18T00:46:30;-7.50;99.90
55369;DHT22;41247;49.736;8.752;2022-12-18T00:50:11;-7.50;99.90
55369;DHT22;41247;49.736;8.752;2022-12-18T00:53:52;-7.40;99.90
55369;DHT22;41247;49.736;8.752;2022-12-18T00:57:33;-7.50;99.90
55369;DHT22;41247;49.736;8.752;2022-12-18T01:01:14;-7.50;99.90
55369;DHT22;41247;49.736;8.752;2022-12-18T01:04:55;-7.50;99.90
55369;DHT22;41247;49.736;8.752;2022-12-18T01:08:35;-7.50;99.90
55369;DHT22;41247;49.736;8.752;2022-12-18T01:12:16;-7.40;99.90
55369;DHT22;41247;49.736;8.752;2022-12-18T01:15:57;-7.30;99.90
55369;DHT22;41247;49.736;8.752;2022-12-18T01:19:37;-7.30;99.90
55369;DHT22;41247;49.736;8.752;2022-12-18T01:23:18;-7.50;99.90
55369;DHT22;41247;49.736;8.752;2022-12-18T01:26:58;-7.60;99.90
55369;DHT22;41247;49.736;8.752;2022-12-18T01:30:39;-7.70;99.90
55369;DHT22;41247;49.736;8.752;2022-12-18T01:34:20;-7.80;99.90
55369;DHT22;41247;49.736;8.752;2022-12-18T01:38:00;-7.90;99.90
55369;DHT22;41247;49.736;8.752;2022-12-18T01:41:42;-7.90;99.90
55369;DHT22;41247;49.736;8.752;2022-12-18T01:45:26;-7.90;99.90
55369;DHT22;41247;49.736;8.752;2022-12-18T01:49:08;-7.90;99.90
55369;DHT22;41247;49.736;8.752;2022-12-18T01:52:55;-7.90;99.90
55369;DHT22;41247;49.736;8.752;2022-12-18T01:56:38;-7.90;99.90
55369;DHT22;41247;49.736;8.752;2022-12-18T02:00:20;-7.90;99.90
55369;DHT22;41247;49.736;8.752;2022-12-18T02:04:22;-8.00;99.90
55369;DHT22;41247;49.736;8.752;2022-12-18T02:12:28;-8.10;99.90
55369;DHT22;41247;49.736;8.752;2022-12-18T02:16:23;-8.20;99.90
55369;DHT22;41247;49.736;8.752;2022-12-18T02:28:00;-8.10;99.90
55369;DHT22;41247;49.736;8.752;2022-12-18T02:31:47;-8.00;99.90
55369;DHT22;41247;49.736;8.752;2022-12-18T02:35:31;-8.00;99.90
55369;DHT22;41247;49.736;8.752;2022-12-18T02:39:13;-8.10;99.90
55369;DHT22;41247;49.736;8.752;2022-12-18T02:42:55;-8.10;99.90
55369;DHT22;41247;49.736;8.752;2022-12-18T02:46:48;-8.20;99.90
55369;DHT22;41247;49.736;8.752;2022-12-18T02:50:36;-8.20;99.90
55369;DHT22;41247;49.736;8.752;2022-12-18T02:54:49;-8.10;99.90
55369;DHT22;41247;49.736;8.752;2022-12-18T02:59:04;-7.90;99.90
55369;DHT22;41247;49.736;8.752;2022-12-18T03:03:11;-7.70;99.90
55369;DHT22;41247;49.736;8.752;2022-12-18T03:06:57;-7.50;99.90
55369;DHT22;41247;49.736;8.752;2022-12-18T03:10:43;-7.40;99.90
55369;DHT22;41247;49.736;8.752;2022-12-18T03:14:30;-7.30;99.90
55369;DHT22;41247;49.736;8.752;2022-12-18T03:18:15;-7.40;99.90
55369;DHT22;41247;49.736;8.752;2022-12-18T03:22:00;-7.60;99.90
55369;DHT22;41247;49.736;8.752;2022-12-18T03:25:44;-7.80;99.90
55369;DHT22;41247;49.736;8.752;2022-12-18T03:29:27;-7.80;99.90
55369;DHT22;41247;49.736;8.752;2022-12-18T03:37:31;-8.00;99.90
55369;DHT22;41247;49.736;8.752;2022-12-18T03:45:23;-8.20;99.90
55369;DHT22;41247;49.736;8.752;2022-12-18T03:49:11;-8.30;99.90
55369;DHT22;41247;49.736;8.752;2022-12-18T03:53:09;-8.50;99.90
55369;DHT22;41247;49.736;8.752;2022-12-18T03:57:11;-8.50;99.90
55369;DHT22;41247;49.736;8.752;2022-12-18T04:00:56;-8.50;99.90
55369;DHT22;41247;49.736;8.752;2022-12-18T04:04:40;-8.50;99.90
55369;DHT22;41247;49.736;8.752;2022-12-18T04:08:23;-8.50;99.90
55369;DHT22;41247;49.736;8.752;2022-12-18T04:12:04;-8.50;99.90
55369;DHT22;41247;49.736;8.752;2022-12-18T04:15:45;-8.60;99.90
55369;DHT22;41247;49.736;8.752;2022-12-18T04:19:25;-8.70;99.90
55369;DHT22;41247;49.736;8.752;2022-12-18T04:23:06;-8.80;99.90
55369;DHT22;41247;49.736;8.752;2022-12-18T04:26:46;-8.80;99.90
55369;DHT22;41247;49.736;8.752;2022-12-18T04:30:27;-8.90;99.90
55369;DHT22;41247;49.736;8.752;2022-12-18T04:34:08;-9.00;99.90
55369;DHT22;41247;49.736;8.752;2022-12-18T04:37:48;-9.00;99.90
55369;DHT22;41247;49.736;8.752;2022-12-18T04:41:29;-8.80;99.90
55369;DHT22;41247;49.736;8.752;2022-12-18T04:45:09;-8.70;99.90
55369;DHT22;41247;49.736;8.752;2022-12-18T04:48:50;-8.40;99.90
55369;DHT22;41247;49.736;8.752;2022-12-18T04:52:31;-8.10;99.90
55369;DHT22;41247;49.736;8.752;2022-12-18T04:56:13;-7.70;99.90
55369;DHT22;41247;49.736;8.752;2022-12-18T04:59:54;-7.60;99.90
55369;DHT22;41247;49.736;8.752;2022-12-18T05:03:36;-7.50;99.90
55369;DHT22;41247;49.736;8.752;2022-12-18T05:07:16;-7.40;99.90
55369;DHT22;41247;49.736;8.752;2022-12-18T05:11:07;-7.60;99.90
55369;DHT22;41247;49.736;8.752;2022-12-18T05:14:48;-7.30;99.90
55369;DHT22;41247;49.736;8.752;2022-12-18T05:18:30;-7.20;99.90
55369;DHT22;41247;49.736;8.752;2022-12-18T05:22:11;-7.20;99.90
55369;DHT22;41247;49.736;8.752;2022-12-18T05:25:57;-7.20;99.90
55369;DHT22;41247;49.736;8.752;2022-12-18T05:29:38;-7.30;99.90
55369;DHT22;41247;49.736;8.752;2022-12-18T05:33:20;-7.40;99.90
55369;DHT22;41247;49.736;8.752;2022-12-18T05:37:01;-7.40;99.90
55369;DHT22;41247;49.736;8.752;2022-12-18T05:40:42;-7.50;99.90
55369;DHT22;41247;49.736;8.752;2022-12-18T05:44:24;-7.50;99.90
55369;DHT22;41247;49.736;8.752;2022-12-18T05:48:07;-7.40;99.90
55369;DHT22;41247;49.736;8.752;2022-12-18T05:52:19;-7.50;99.90
55369;DHT22;41247;49.736;8.752;2022-12-18T05:56:28;-7.60;99.90
55369;DHT22;41247;49.736;8.752;2022-12-18T06:00:23;-7.50;99.90
55369;DHT22;41247;49.736;8.752;2022-12-18T06:04:12;-7.60;99.90
55369;DHT22;41247;49.736;8.752;2022-12-18T06:12:50;-7.60;99.90
55369;DHT22;41247;49.736;8.752;2022-12-18T06:16:33;-7.50;99.90
55369;DHT22;41247;49.736;8.752;2022-12-18T06:20:26;-7.60;99.90
55369;DHT22;41247;49.736;8.752;2022-12-18T06:24:22;-7.70;99.90
55369;DHT22;41247;49.736;8.752;2022-12-18T06:28:03;-7.80;99.90
55369;DHT22;41247;49.736;8.752;2022-12-18T06:31:45;-7.90;99.90
55369;DHT22;41247;49.736;8.752;2022-12-18T06:36:08;-7.90;99.90
55369;DHT22;41247;49.736;8.752;2022-12-18T06:40:17;-8.00;99.90
55369;DHT22;41247;49.736;8.752;2022-12-18T06:44:07;-8.10;99.90
55369;DHT22;41247;49.736;8.752;2022-12-18T06:48:06;-8.10;99.90
55369;DHT22;41247;49.736;8.752;2022-12-18T06:52:05;-8.20;99.90
55369;DHT22;41247;49.736;8.752;2022-12-18T06:55:45;-8.10;99.90
55369;DHT22;41247;49.736;8.752;2022-12-18T06:59:26;-8.10;99.90
55369;DHT22;41247;49.736;8.752;2022-12-18T07:07:29;-8.20;99.90
55369;DHT22;41247;49.736;8.752;2022-12-18T07:11:10;-8.20;99.90
55369;DHT22;41247;49.736;8.752;2022-12-18T07:15:01;-8.20;99.90
55369;DHT22;41247;49.736;8.752;2022-12-18T07:19:51;-8.30;99.90
55369;DHT22;41247;49.736;8.752;2022-12-18T07:24:04;-8.30;99.90
55369;DHT22;41247;49.736;8.752;2022-12-18T07:27:45;-8.30;99.90
55369;DHT22;41247;49.736;8.752;2022-12-18T07:31:26;-8.30;99.90
55369;DHT22;41247;49.736;8.752;2022-12-18T07:35:06;-8.40;99.90
55369;DHT22;41247;49.736;8.752;2022-12-18T07:38:48;-8.50;99.90
55369;DHT22;41247;49.736;8.752;2022-12-18T07:42:29;-8.50;99.90
55369;DHT22;41247;49.736;8.752;2022-12-18T07:46:10;-8.50;99.90
55369;DHT22;41247;49.736;8.752;2022-12-18T07:49:51;-8.50;99.90
55369;DHT22;41247;49.736;8.752;2022-12-18T07:53:33;-8.60;99.90
55369;DHT22;41247;49.736;8.752;2022-12-18T07:57:14;-8.60;99.90
55369;DHT22;41247;49.736;8.752;2022-12-18T08:01:05;-8.60;99.90
55369;DHT22;41247;49.736;8.752;2022-12-18T08:04:47;-8.60;99.90
55369;DHT22;41247;49.736;8.752;2022-12-18T08:08:28;-8.60;99.90
55369;DHT22;41247;49.736;8.752;2022-12-18T08:12:09;-8.60;99.90
55369;DHT22;41247;49.736;8.752;2022-12-18T08:19:42;-8.50;99.90
55369;DHT22;41247;49.736;8.752;2022-12-18T08:23:23;-8.60;99.90
55369;DHT22;41247;49.736;8.752;2022-12-18T08:27:03;-8.60;99.90
55369;DHT22;41247;49.736;8.752;2022-12-18T08:30:44;-8.60;99.90
55369;DHT22;41247;49.736;8.752;2022-12-18T08:34:25;-8.60;99.90
55369;DHT22;41247;49.736;8.752;2022-12-18T08:38:05;-8.60;99.90
55369;DHT22;41247;49.736;8.752;2022-12-18T08:41:46;-8.50;99.90
55369;DHT22;41247;49.736;8.752;2022-12-18T08:45:27;-8.40;99.90
55369;DHT22;41247;49.736;8.752;2022-12-18T08:49:09;-8.30;99.90
55369;DHT22;41247;49.736;8.752;2022-12-18T08:52:50;-8.20;99.90
55369;DHT22;41247;49.736;8.752;2022-12-18T08:56:31;-8.20;99.90
55369;DHT22;41247;49.736;8.752;2022-12-18T09:00:12;-8.10;99.90
55369;DHT22;41247;49.736;8.752;2022-12-18T09:03:53;-7.90;99.90
55369;DHT22;41247;49.736;8.752;2022-12-18T09:07:35;-7.80;99.90
55369;DHT22;41247;49.736;8.752;2022-12-18T09:11:26;-7.60;99.90
55369;DHT22;41247;49.736;8.752;2022-12-18T09:15:08;-7.50;99.90
55369;DHT22;41247;49.736;8.752;2022-12-18T09:18:48;-7.40;99.90
55369;DHT22;41247;49.736;8.752;2022-12-18T09:22:29;-7.40;99.90
55369;DHT22;41247;49.736;8.752;2022-12-18T09:26:10;-7.30;99.90
55369;DHT22;41247;49.736;8.752;2022-12-18T09:29:51;-7.20;99.90
55369;DHT22;41247;49.736;8.752;2022-12-18T09:33:31;-7.10;99.90
55369;DHT22;41247;49.736;8.752;2022-12-18T09:37:12;-6.90;99.90
55369;DHT22;41247;49.736;8.752;2022-12-18T09:40:55;-6.80;99.90
55369;DHT22;41247;49.736;8.752;2022-12-18T09:44:42;-6.60;99.90
55369;DHT22;41247;49.736;8.752;2022-12-18T09:48:32;-6.40;99.90
55369;DHT22;41247;49.736;8.752;2022-12-18T09:52:35;-6.30;99.90
55369;DHT22;41247;49.736;8.752;2022-12-18T09:56:21;-6.10;99.90
55369;DHT22;41247;49.736;8.752;2022-12-18T10:00:35;-5.90;99.90
55369;DHT22;41247;49.736;8.752;2022-12-18T10:04:15;-5.70;99.90
55369;DHT22;41247;49.736;8.752;2022-12-18T10:08:09;-5.50;99.90
55369;DHT22;41247;49.736;8.752;2022-12-18T10:28:17;-5.00;99.90
55369;DHT22;41247;49.736;8.752;2022-12-18T10:31:59;-4.80;99.90
55369;DHT22;41247;49.736;8.752;2022-12-18T10:35:41;-4.70;99.90
55369;DHT22;41247;49.736;8.752;2022-12-18T10:39:24;-4.50;99.90
55369;DHT22;41247;49.736;8.752;2022-12-18T10:43:11;-4.40;99.90
55369;DHT22;41247;49.736;8.752;2022-12-18T10:47:04;-4.30;99.90
55369;DHT22;41247;49.736;8.752;2022-12-18T10:50:48;-4.20;99.90
55369;DHT22;41247;49.736;8.752;2022-12-18T10:54:30;-4.00;99.90
55369;DHT22;41247;49.736;8.752;2022-12-18T11:02:34;-3.80;99.90
55369;DHT22;41247;49.736;8.752;2022-12-18T11:06:20;-3.70;99.90
55369;DHT22;41247;49.736;8.752;2022-12-18T11:10:03;-3.60;99.90
55369;DHT22;41247;49.736;8.752;2022-12-18T11:13:51;-3.50;99.90
55369;DHT22;41247;49.736;8.752;2022-12-18T11:17:48;-3.40;99.90
55369;DHT22;41247;49.736;8.752;2022-12-18T11:21:39;-3.40;99.90
55369;DHT22;41247;49.736;8.752;2022-12-18T11:25:21;-3.30;99.90
55369;DHT22;41247;49.736;8.752;2022-12-18T11:29:10;-3.20;99.90
55369;DHT22;41247;49.736;8.752;2022-12-18T11:36:44;-3.10;99.90
55369;DHT22;41247;49.736;8.752;2022-12-18T11:40:32;-3.00;99.90
55369;DHT22;41247;49.736;8.752;2022-12-18T11:44:29;-2.80;99.90
55369;DHT22;41247;49.736;8.752;2022-12-18T11:48:35;-2.60;99.90
55369;DHT22;41247;49.736;8.752;2022-12-18T11:52:23;-2.40;99.90
55369;DHT22;41247;49.736;8.752;2022-12-18T12:00:19;-2.20;99.90
55369;DHT22;41247;49.736;8.752;2022-12-18T12:04:24;-2.10;99.90
55369;DHT22;41247;49.736;8.752;2022-12-18T12:16:58;-1.80;99.90
55369;DHT22;41247;49.736;8.752;2022-12-18T12:21:06;-1.70;99.90
55369;DHT22;41247;49.736;8.752;2022-12-18T12:25:28;-1.60;99.90
55369;DHT22;41247;49.736;8.752;2022-12-18T12:33:21;-1.50;99.90
55369;DHT22;41247;49.736;8.752;2022-12-18T12:37:55;-1.40;99.90
55369;DHT22;41247;49.736;8.752;2022-12-18T12:41:27;-1.30;99.90
55369;DHT22;41247;49.736;8.752;2022-12-18T12:45:20;-1.30;99.90
55369;DHT22;41247;49.736;8.752;2022-12-18T12:49:11;-1.30;99.90
55369;DHT22;41247;49.736;8.752;2022-12-18T12:52:55;-1.30;99.90
55369;DHT22;41247;49.736;8.752;2022-12-18T12:56:45;-1.40;99.90
55369;DHT22;41247;49.736;8.752;2022-12-18T13:00:39;-1.30;99.90
55369;DHT22;41247;49.736;8.752;2022-12-18T13:08:28;-1.30;99.90
55369;DHT22;41247;49.736;8.752;2022-12-18T13:12:11;-1.30;99.90
55369;DHT22;41247;49.736;8.752;2022-12-18T13:16:07;-1.30;99.90
55369;DHT22;41247;49.736;8.752;2022-12-18T13:20:04;-1.30;99.90
55369;DHT22;41247;49.736;8.752;2022-12-18T13:23:50;-1.30;99.90
55369;DHT22;41247;49.736;8.752;2022-12-18T13:42:59;-1.70;99.90
55369;DHT22;41247;49.736;8.752;2022-12-18T13:46:45;-1.70;99.90
55369;DHT22;41247;49.736;8.752;2022-12-18T13:50:26;-1.80;99.90
55369;DHT22;41247;49.736;8.752;2022-12-18T13:54:30;-1.80;99.90
55369;DHT22;41247;49.736;8.752;2022-12-18T13:58:14;-1.90;99.90
55369;DHT22;41247;49.736;8.752;2022-12-18T14:02:00;-1.90;99.90
55369;DHT22;41247;49.736;8.752;2022-12-18T14:05:46;-1.90;99.90
55369;DHT22;41247;49.736;8.752;2022-12-18T14:09:40;-1.90;99.90
55369;DHT22;41247;49.736;8.752;2022-12-18T14:13:32;-1.90;99.90
55369;DHT22;41247;49.736;8.752;2022-12-18T14:17:16;-2.00;99.90
55369;DHT22;41247;49.736;8.752;2022-12-18T14:20:59;-2.20;99.90
55369;DHT22;41247;49.736;8.752;2022-12-18T14:24:40;-2.40;99.90
55369;DHT22;41247;49.736;8.752;2022-12-18T14:28:21;-2.50;99.90
55369;DHT22;41247;49.736;8.752;2022-12-18T14:32:15;-2.60;99.90
55369;DHT22;41247;49.736;8.752;2022-12-18T14:36:03;-2.60;99.90
55369;DHT22;41247;49.736;8.752;2022-12-18T14:40:02;-2.70;99.90
55369;DHT22;41247;49.736;8.752;2022-12-18T14:43:45;-2.80;99.90
55369;DHT22;41247;49.736;8.752;2022-12-18T14:47:27;-3.00;99.90
55369;DHT22;41247;49.736;8.752;2022-12-18T14:51:30;-3.10;99.90
55369;DHT22;41247;49.736;8.752;2022-12-18T14:55:18;-3.10;99.90
55369;DHT22;41247;49.736;8.752;2022-12-18T14:59:04;-3.10;99.90
55369;DHT22;41247;49.736;8.752;2022-12-18T15:02:50;-3.20;99.90
55369;DHT22;41247;49.736;8.752;2022-12-18T15:06:35;-3.30;99.90
55369;DHT22;41247;49.736;8.752;2022-12-18T15:10:22;-3.40;99.90
55369;DHT22;41247;49.736;8.752;2022-12-18T15:14:38;-3.50;99.90
55369;DHT22;41247;49.736;8.752;2022-12-18T15:18:33;-3.70;99.90
55369;DHT22;41247;49.736;8.752;2022-12-18T15:22:21;-3.70;99.90
55369;DHT22;41247;49.736;8.752;2022-12-18T15:26:07;-3.80;99.90
55369;DHT22;41247;49.736;8.752;2022-12-18T15:37:34;-4.00;99.90
55369;DHT22;41247;49.736;8.752;2022-12-18T15:41:16;-4.10;99.90
55369;DHT22;41247;49.736;8.752;2022-12-18T15:44:58;-4.20;99.90
55369;DHT22;41247;49.736;8.752;2022-12-18T15:48:41;-4.20;99.90
55369;DHT22;41247;49.736;8.752;2022-12-18T15:52:23;-4.20;99.90
55369;DHT22;41247;49.736;8.752;2022-12-18T15:56:04;-4.30;99.90
55369;DHT22;41247;49.736;8.752;2022-12-18T15:59:48;-4.30;99.90
55369;DHT22;41247;49.736;8.752;2022-12-18T16:03:29;-4.30;99.90
55369;DHT22;41247;49.736;8.752;2022-12-18T16:07:09;-4.30;99.90
55369;DHT22;41247;49.736;8.752;2022-12-18T16:10:50;-4.40;99.90
55369;DHT22;41247;49.736;8.752;2022-12-18T16:14:32;-4.30;99.90
55369;DHT22;41247;49.736;8.752;2022-12-18T16:18:12;-4.30;99.90
55369;DHT22;41247;49.736;8.752;2022-12-18T16:21:55;-4.30;99.90
55369;DHT22;41247;49.736;8.752;2022-12-18T16:25:36;-4.30;99.90
55369;DHT22;41247;49.736;8.752;2022-12-18T16:29:18;-4.30;99.90
55369;DHT22;41247;49.736;8.752;2022-12-18T16:32:59;-4.30;99.90
55369;DHT22;41247;49.736;8.752;2022-12-18T16:36:40;-4.30;99.90
55369;DHT22;41247;49.736;8.752;2022-12-18T16:40:20;-4.30;99.90
55369;DHT22;41247;49.736;8.752;2022-12-18T16:44:02;-4.30;99.90
55369;DHT22;41247;49.736;8.752;2022-12-18T16:47:43;-4.30;99.90
55369;DHT22;41247;49.736;8.752;2022-12-18T16:51:24;-4.20;99.90
55369;DHT22;41247;49.736;8.752;2022-12-18T16:55:06;-4.20;99.90
55369;DHT22;41247;49.736;8.752;2022-12-18T16:58:51;-4.20;99.90
55369;DHT22;41247;49.736;8.752;2022-12-18T17:02:33;-4.20;99.90
55369;DHT22;41247;49.736;8.752;2022-12-18T17:06:13;-4.10;99.90
55369;DHT22;41247;49.736;8.752;2022-12-18T17:09:54;-4.10;99.90
55369;DHT22;41247;49.736;8.752;2022-12-18T17:13:35;-4.10;99.90
55369;DHT22;41247;49.736;8.752;2022-12-18T17:17:15;-4.10;99.90
55369;DHT22;41247;49.736;8.752;2022-12-18T17:21:04;-4.10;99.90
55369;DHT22;41247;49.736;8.752;2022-12-18T17:24:46;-4.00;99.90
55369;DHT22;41247;49.736;8.752;2022-12-18T17:28:27;-4.00;99.90
55369;DHT22;41247;49.736;8.752;2022-12-18T17:32:08;-4.00;99.90
55369;DHT22;41247;49.736;8.752;2022-12-18T17:35:49;-3.90;99.90
55369;DHT22;41247;49.736;8.752;2022-12-18T17:39:29;-3.80;99.90
55369;DHT22;41247;49.736;8.752;2022-12-18T17:43:10;-3.80;99.90
55369;DHT22;41247;49.736;8.752;2022-12-18T17:46:53;-3.80;99.90
55369;DHT22;41247;49.736;8.752;2022-12-18T17:50:34;-3.80;99.90
55369;DHT22;41247;49.736;8.752;2022-12-18T17:54:15;-3.80;99.90
55369;DHT22;41247;49.736;8.752;2022-12-18T17:57:56;-3.80;99.90
55369;DHT22;41247;49.736;8.752;2022-12-18T18:01:37;-3.80;99.90
55369;DHT22;41247;49.736;8.752;2022-12-18T18:05:17;-3.70;99.90
55369;DHT22;41247;49.736;8.752;2022-12-18T18:08:58;-3.70;99.90
55369;DHT22;41247;49.736;8.752;2022-12-18T18:12:39;-3.70;99.90
55369;DHT22;41247;49.736;8.752;2022-12-18T18:16:19;-3.60;99.90
55369;DHT22;41247;49.736;8.752;2022-12-18T18:20:00;-3.60;99.90
55369;DHT22;41247;49.736;8.752;2022-12-18T18:23:40;-3.50;99.90
55369;DHT22;41247;49.736;8.752;2022-12-18T18:27:21;-3.50;99.90
55369;DHT22;41247;49.736;8.752;2022-12-18T18:31:06;-3.40;99.90
55369;DHT22;41247;49.736;8.752;2022-12-18T18:34:47;-3.40;99.90
55369;DHT22;41247;49.736;8.752;2022-12-18T18:38:28;-3.30;99.90
55369;DHT22;41247;49.736;8.752;2022-12-18T18:42:09;-3.30;99.90
55369;DHT22;41247;49.736;8.752;2022-12-18T18:45:54;-3.20;99.90
55369;DHT22;41247;49.736;8.752;2022-12-18T18:49:35;-3.20;99.90
55369;DHT22;41247;49.736;8.752;2022-12-18T18:53:16;-3.20;99.90
55369;DHT22;41247;49.736;8.752;2022-12-18T18:56:56;-3.20;99.90
55369;DHT22;41247;49.736;8.752;2022-12-18T19:00:37;-3.10;99.90
55369;DHT22;41247;49.736;8.752;2022-12-18T19:04:18;-3.10;99.90
55369;DHT22;41247;49.736;8.752;2022-12-18T19:07:59;-3.10;99.90
55369;DHT22;41247;49.736;8.752;2022-12-18T19:11:39;-3.00;99.90
55369;DHT22;41247;49.736;8.752;2022-12-18T19:15:20;-3.00;99.90
55369;DHT22;41247;49.736;8.752;2022-12-18T19:19:01;-3.00;99.90
55369;DHT22;41247;49.736;8.752;2022-12-18T19:22:42;-3.10;99.90
55369;DHT22;41247;49.736;8.752;2022-12-18T19:26:23;-3.10;99.90
55369;DHT22;41247;49.736;8.752;2022-12-18T19:30:05;-3.10;99.90
55369;DHT22;41247;49.736;8.752;2022-12-18T19:33:46;-3.10;99.90
55369;DHT22;41247;49.736;8.752;2022-12-18T19:37:27;-3.10;99.90
55369;DHT22;41247;49.736;8.752;2022-12-18T19:41:07;-3.10;99.90
55369;DHT22;41247;49.736;8.752;2022-12-18T19:44:48;-3.10;99.90
55369;DHT22;41247;49.736;8.752;2022-12-18T19:48:33;-3.10;99.90
55369;DHT22;41247;49.736;8.752;2022-12-18T19:52:15;-3.00;99.90
55369;DHT22;41247;49.736;8.752;2022-12-18T19:55:56;-3.00;99.90
55369;DHT22;41247;49.736;8.752;2022-12-18T19:59:37;-3.00;99.90
55369;DHT22;41247;49.736;8.752;2022-12-18T20:03:17;-3.00;99.90
55369;DHT22;41247;49.736;8.752;2022-12-18T20:06:58;-2.90;99.90
55369;DHT22;41247;49.736;8.752;2022-12-18T20:10:38;-2.90;99.90
55369;DHT22;41247;49.736;8.752;2022-12-18T20:14:19;-2.80;99.90
55369;DHT22;41247;49.736;8.752;2022-12-18T20:18:00;-2.90;99.90
55369;DHT22;41247;49.736;8.752;2022-12-18T20:21:40;-2.90;99.90
55369;DHT22;41247;49.736;8.752;2022-12-18T20:25:21;-2.90;99.90
55369;DHT22;41247;49.736;8.752;2022-12-18T20:29:01;-2.90;99.90
55369;DHT22;41247;49.736;8.752;2022-12-18T20:32:42;-2.90;99.90
55369;DHT22;41247;49.736;8.752;2022-12-18T20:36:23;-2.90;99.90
55369;DHT22;41247;49.736;8.752;2022-12-18T20:40:04;-2.90;99.90
55369;DHT22;41247;49.736;8.752;2022-12-18T20:43:45;-2.90;99.90
55369;DHT22;41247;49.736;8.752;2022-12-18T20:47:26;-2.90;99.90
55369;DHT22;41247;49.736;8.752;2022-12-18T20:51:09;-2.80;99.90
55369;DHT22;41247;49.736;8.752;2022-12-18T20:54:51;-2.80;99.90
55369;DHT22;41247;49.736;8.752;2022-12-18T20:58:32;-2.80;99.90
55369;DHT22;41247;49.736;8.752;2022-12-18T21:02:12;-2.80;99.90
55369;DHT22;41247;49.736;8.752;2022-12-18T21:05:53;-2.80;99.90
55369;DHT22;41247;49.736;8.752;2022-12-18T21:09:33;-2.80;99.90
55369;DHT22;41247;49.736;8.752;2022-12-18T21:13:14;-2.70;99.90
55369;DHT22;41247;49.736;8.752;2022-12-18T21:16:55;-2.70;99.90
55369;DHT22;41247;49.736;8.752;2022-12-18T21:20:37;-2.70;99.90
55369;DHT22;41247;49.736;8.752;2022-12-18T21:24:18;-2.70;99.90
55369;DHT22;41247;49.736;8.752;2022-12-18T21:27:58;-2.70;99.90
55369;DHT22;41247;49.736;8.752;2022-12-18T21:31:42;-2.70;99.90
55369;DHT22;41247;49.736;8.752;2022-12-18T21:35:23;-2.70;99.90
55369;DHT22;41247;49.736;8.752;2022-12-18T21:39:03;-2.60;99.90
55369;DHT22;41247;49.736;8.752;2022-12-18T21:42:49;-2.60;99.90
55369;DHT22;41247;49.736;8.752;2022-12-18T21:46:31;-2.60;99.90
55369;DHT22;41247;49.736;8.752;2022-12-18T21:50:13;-2.70;99.90
55369;DHT22;41247;49.736;8.752;2022-12-18T21:53:59;-2.70;99.90
55369;DHT22;41247;49.736;8.752;2022-12-18T21:57:40;-2.70;99.90
55369;DHT22;41247;49.736;8.752;2022-12-18T22:01:21;-2.60;99.90
55369;DHT22;41247;49.736;8.752;2022-12-18T22:05:02;-2.60;99.90
55369;DHT22;41247;49.736;8.752;2022-12-18T22:08:42;-2.70;99.90
55369;DHT22;41247;49.736;8.752;2022-12-18T22:12:23;-2.70;99.90
55369;DHT22;41247;49.736;8.752;2022-12-18T22:16:03;-2.70;99.90
55369;DHT22;41247;49.736;8.752;2022-12-18T22:19:44;-2.70;99.90
55369;DHT22;41247;49.736;8.752;2022-12-18T22:23:25;-2.70;99.90
55369;DHT22;41247;49.736;8.752;2022-12-18T22:27:05;-2.70;99.90
55369;DHT22;41247;49.736;8.752;2022-12-18T22:30:48;-2.60;99.90
55369;DHT22;41247;49.736;8.752;2022-12-18T22:34:28;-2.60;99.90
55369;DHT22;41247;49.736;8.752;2022-12-18T22:38:09;-2.60;99.90
55369;DHT22;41247;49.736;8.752;2022-12-18T22:41:50;-2.50;99.90
55369;DHT22;41247;49.736;8.752;2022-12-18T22:45:31;-2.50;99.90
55369;DHT22;41247;49.736;8.752;2022-12-18T22:49:13;-2.40;99.90
55369;DHT22;41247;49.736;8.752;2022-12-18T22:52:55;-2.40;99.90
55369;DHT22;41247;49.736;8.752;2022-12-18T22:56:36;-2.40;99.90
55369;DHT22;41247;49.736;8.752;2022-12-18T23:00:17;-2.40;99.90
55369;DHT22;41247;49.736;8.752;2022-12-18T23:03:58;-2.40;99.90
55369;DHT22;41247;49.736;8.752;2022-12-18T23:07:38;-2.50;99.90
55369;DHT22;41247;49.736;8.752;2022-12-18T23:11:19;-2.50;99.90
55369;DHT22;41247;49.736;8.752;2022-12-18T23:15:00;-2.40;99.90
55369;DHT22;41247;49.736;8.752;2022-12-18T23:18:41;-2.40;99.90
55369;DHT22;41247;49.736;8.752;2022-12-18T23:22:22;-2.30;99.90
55369;DHT22;41247;49.736;8.752;2022-12-18T23:29:50;-2.40;99.90
55369;DHT22;41247;49.736;8.752;2022-12-18T23:33:30;-2.40;99.90
55369;DHT22;41247;49.736;8.752;2022-12-18T23:37:11;-2.40;99.90
55369;DHT22;41247;49.736;8.752;2022-12-18T23:40:51;-2.50;99.90
55369;DHT22;41247;49.736;8.752;2022-12-18T23:44:32;-2.50;99.90
55369;DHT22;41247;49.736;8.752;2022-12-18T23:48:13;-2.40;99.90
55369;DHT22;41247;49.736;8.752;2022-12-18T23:51:54;-2.30;99.90
55369;DHT22;41247;49.736;8.752;2022-12-18T23:55:42;-2.30;99.90
55369;DHT22;41247;49.736;8.752;2022-12-18T23:59:23;-2.20;99.90
